地図

経路データ

SID SEASON NUMBER BASIN SUBBASIN NAME ISO_TIME NATURE LAT LON WMO_WIND WMO_PRES WMO_AGENCY TRACK_TYPE DIST2LAND LANDFALL IFLAG USA_AGENCY USA_ATCF_ID USA_LAT USA_LON USA_RECORD USA_STATUS USA_WIND USA_PRES USA_SSHS USA_R34_NE USA_R34_SE USA_R34_SW USA_R34_NW USA_R50_NE USA_R50_SE USA_R50_SW USA_R50_NW USA_R64_NE USA_R64_SE USA_R64_SW USA_R64_NW USA_POCI USA_ROCI USA_RMW USA_EYE TOKYO_LAT TOKYO_LON TOKYO_GRADE TOKYO_WIND TOKYO_PRES TOKYO_R50_DIR TOKYO_R50_LONG TOKYO_R50_SHORT TOKYO_R30_DIR TOKYO_R30_LONG TOKYO_R30_SHORT TOKYO_LAND CMA_LAT CMA_LON CMA_CAT CMA_WIND CMA_PRES HKO_LAT HKO_LON HKO_CAT HKO_WIND HKO_PRES NEWDELHI_LAT NEWDELHI_LON NEWDELHI_GRADE NEWDELHI_WIND NEWDELHI_PRES NEWDELHI_CI NEWDELHI_DP NEWDELHI_POCI REUNION_LAT REUNION_LON REUNION_TYPE REUNION_WIND REUNION_PRES REUNION_TNUM REUNION_CI REUNION_RMW REUNION_R34_NE REUNION_R34_SE REUNION_R34_SW REUNION_R34_NW REUNION_R50_NE REUNION_R50_SE REUNION_R50_SW REUNION_R50_NW REUNION_R64_NE REUNION_R64_SE REUNION_R64_SW REUNION_R64_NW BOM_LAT BOM_LON BOM_TYPE BOM_WIND BOM_PRES BOM_TNUM BOM_CI BOM_RMW BOM_R34_NE BOM_R34_SE BOM_R34_SW BOM_R34_NW BOM_R50_NE BOM_R50_SE BOM_R50_SW BOM_R50_NW BOM_R64_NE BOM_R64_SE BOM_R64_SW BOM_R64_NW BOM_ROCI BOM_POCI BOM_EYE BOM_POS_METHOD BOM_PRES_METHOD NADI_LAT NADI_LON NADI_CAT NADI_WIND NADI_PRES WELLINGTON_LAT WELLINGTON_LON WELLINGTON_WIND WELLINGTON_PRES DS824_LAT DS824_LON DS824_STAGE DS824_WIND DS824_PRES TD9636_LAT TD9636_LON TD9636_STAGE TD9636_WIND TD9636_PRES TD9635_LAT TD9635_LON TD9635_WIND TD9635_PRES TD9635_ROCI NEUMANN_LAT NEUMANN_LON NEUMANN_CLASS NEUMANN_WIND NEUMANN_PRES MLC_LAT MLC_LON MLC_CLASS MLC_WIND MLC_PRES USA_GUST BOM_GUST BOM_GUST_PER REUNION_GUST REUNION_GUST_PER USA_SEAHGT USA_SEARAD_NE USA_SEARAD_SE USA_SEARAD_SW USA_SEARAD_NW STORM_SPEED STORM_DIR
1969308N12095 1969 109 NI BB NOT_NAMED 1969-11-03 18:00:00 TS 12.3000 94.6000 main 383 383 O________O____ jtwc_io IO121969 12.3000 94.6000 -1 12.3000 94.6000 TC 2 292
1969308N12095 1969 109 NI BB NOT_NAMED 1969-11-03 21:00:00 TS 12.3450 94.4850 main 384 373 P________P____ IO121969 12.3450 94.4850 -1 12.3450 94.4850 TC 3 289
1969308N12095 1969 109 NI BB NOT_NAMED 1969-11-04 00:00:00 TS 12.4000 94.3000 main 377 370 O________O____ jtwc_io IO121969 12.4000 94.3000 -1 12.4000 94.3000 TC 25 5 286
1969308N12095 1969 109 NI BB NOT_NAMED 1969-11-04 03:00:00 TS 12.4800 93.9955 main 371 364 P________PO___ IO121969 12.4775 93.9949 -1 12.4775 93.9949 TC 25 12.5000 94.0000 1 7 287
1969308N12095 1969 109 NI BB NOT_NAMED 1969-11-04 06:00:00 TS 12.6129 93.5964 main 368 356 O________OP___ jtwc_io IO121969 12.6000 93.6000 -1 12.6000 93.6000 TC 25 12.6645 93.5817 1 9 292
1969308N12095 1969 109 NI BB NOT_NAMED 1969-11-04 09:00:00 TS 12.8063 93.1584 main 359 353 P________PP___ IO121969 12.8000 93.1576 -1 12.8000 93.1576 TC 25 12.8230 93.1605 1 9 294
1969308N12095 1969 109 NI BB NOT_NAMED 1969-11-04 12:00:00 TS 12.9900 92.7114 main 363 363 O________OP___ jtwc_io IO121969 13.0000 92.7000 -1 13.0000 92.7000 TC 25 12.9700 92.7341 1 9 290
1969308N12095 1969 109 NI BB NOT_NAMED 1969-11-04 15:00:00 TS 13.1099 92.2999 main 377 377 P________PO___ IO121969 13.1149 92.2999 -1 13.1149 92.2999 TC 30 13.1000 92.3000 1 8 285
1969308N12095 1969 109 NI BB NOT_NAMED 1969-11-04 18:00:00 TS 13.2034 91.8856 main 396 396 O________OP___ jtwc_io IO121969 13.2000 91.9000 -1 13.2000 91.9000 TC 35 13.2101 91.8569 1 9 283
1969308N12095 1969 109 NI BB NOT_NAMED 1969-11-04 21:00:00 TS 13.3024 91.4407 main 426 426 P________PP___ IO121969 13.3000 91.4575 -1 13.3000 91.4575 TC 35 13.3073 91.4071 1 9 283
1969308N12095 1969 109 NI BB NOT_NAMED 1969-11-05 00:00:00 TS 13.4002 90.9846 main 450 450 O________OP___ jtwc_io IO121969 13.4000 91.0000 -1 13.4000 91.0000 TC 35 13.4007 90.9538 1 9 282
1969308N12095 1969 109 NI BB NOT_NAMED 1969-11-05 03:00:00 TS 13.4949 90.5333 main 486 486 P________PO___ IO121969 13.4924 90.5499 -1 13.4924 90.5499 TC 35 13.5000 90.5000 3 9 283
1969308N12095 1969 109 NI BB NOT_NAMED 1969-11-05 06:00:00 TS 13.6059 90.0833 main 516 516 O________OP___ jtwc_io IO121969 13.6000 90.1000 -1 13.6000 90.1000 TC 35 13.6176 90.0499 3 9 286
1969308N12095 1969 109 NI BB NOT_NAMED 1969-11-05 09:00:00 TS 13.7473 89.6333 main 557 552 P________PP___ IO121969 13.7499 89.6500 -1 13.7499 89.6500 TC 35 13.7422 89.5999 3 9 288
1969308N12095 1969 109 NI BB NOT_NAMED 1969-11-05 12:00:00 TS 13.8902 89.1833 main 586 586 O________OP___ jtwc_io IO121969 13.9000 89.2000 -1 13.9000 89.2000 TC 35 13.8707 89.1499 3 9 286
1969308N12095 1969 109 NI BB NOT_NAMED 1969-11-05 15:00:00 TS 13.9999 88.7332 main 631 631 P________PO___ IO121969 13.9999 88.7499 -1 13.9999 88.7499 TC 35 14.0000 88.7000 3 9 284
1969308N12095 1969 109 NI BB NOT_NAMED 1969-11-05 18:00:00 TS 14.1069 88.2860 main 649 612 O________OP___ jtwc_io IO121969 14.1000 88.3000 -1 14.1000 88.3000 TC 35 14.1206 88.2579 3 9 286
1969308N12095 1969 109 NI BB NOT_NAMED 1969-11-05 21:00:00 TS 14.2472 87.8432 main 605 560 P________PP___ IO121969 14.2499 87.8575 -1 14.2499 87.8575 TC 50 14.2420 87.8146 3 9 288
1969308N12095 1969 109 NI BB NOT_NAMED 1969-11-06 00:00:00 TS 14.3891 87.3880 main 560 519 O________OP___ jtwc_io IO121969 14.4000 87.4000 -1 14.4000 87.4000 TC 65 14.3674 87.3641 3 9 286
1969308N12095 1969 109 NI BB NOT_NAMED 1969-11-06 03:00:00 TS 14.5000 86.9049 main 519 479 P________PO___ IO121969 14.4999 86.9074 -1 14.4999 86.9074 TC 65 14.5000 86.9000 4 10 283
1969308N12095 1969 109 NI BB NOT_NAMED 1969-11-06 06:00:00 TS 14.6090 86.3899 main 479 434 O________OP___ jtwc_io IO121969 14.6000 86.4000 -1 14.6000 86.4000 TC 65 14.6270 86.3697 4 10 284
1969308N12095 1969 109 NI BB NOT_NAMED 1969-11-06 09:00:00 TS 14.7444 85.8675 main 434 382 P________PP___ IO121969 14.7350 85.8850 -1 14.7350 85.8850 TC 65 14.7631 85.8325 4 10 287
1969308N12095 1969 109 NI BB NOT_NAMED 1969-11-06 12:00:00 TS 14.9059 85.3764 main 382 334 O________OP___ jtwc_io IO121969 14.9000 85.4000 -1 14.9000 85.4000 TC 65 14.9176 85.3291 4 10 291
1969308N12095 1969 109 NI BB NOT_NAMED 1969-11-06 15:00:00 TS 15.0850 84.9317 main 324 285 P________PO___ IO121969 15.0775 84.9475 -1 15.0775 84.9475 TC 65 15.1000 84.9000 4 8 299
1969308N12095 1969 109 NI BB NOT_NAMED 1969-11-06 18:00:00 TS 15.3105 84.6308 main 285 260 O________OP___ jtwc_io IO121969 15.3000 84.6000 -1 15.3000 84.6000 TC 65 15.3316 84.6924 4 7 320
1969308N12095 1969 109 NI BB NOT_NAMED 1969-11-06 21:00:00 TS 15.5963 84.4918 main 260 223 P________PP___ IO121969 15.5997 84.4647 -1 15.5997 84.4647 TC 65 15.5896 84.5460 4 7 332
1969308N12095 1969 109 NI BB NOT_NAMED 1969-11-07 00:00:00 TS 15.8843 84.3172 main 223 187 O________OP___ jtwc_io IO121969 15.9000 84.3000 -1 15.9000 84.3000 TC 65 15.8529 84.3516 4 7 315
1969308N12095 1969 109 NI BB NOT_NAMED 1969-11-07 03:00:00 TS 16.1147 83.9466 main 178 111 P________PO___ IO121969 16.1220 83.9198 -1 16.1220 83.9198 TC 50 16.1000 84.0000 4 11 293
1969308N12095 1969 109 NI BB NOT_NAMED 1969-11-07 06:00:00 TS 16.3025 83.2971 main 111 15 O________OP___ jtwc_io IO121969 16.3000 83.3000 -1 16.3000 83.3000 TC 35 16.3074 83.2914 4 15 283
1969308N12095 1969 109 NI BB NOT_NAMED 1969-11-07 09:00:00 TS 16.4695 82.3853 main 15 0 P________PP___ IO121969 16.4585 82.3651 -1 16.4585 82.3651 TC 35 16.4915 82.4259 4 18 280
1969308N12095 1969 109 NI BB NOT_NAMED 1969-11-07 12:00:00 TS 16.6181 81.4408 main 0 0 O________OP___ jtwc_io IO121969 16.6000 81.4000 -1 16.6000 81.4000 TC 35 16.6544 81.5223 4 16 281
1969308N12095 1969 109 NI BB NOT_NAMED 1969-11-07 15:00:00 TS 16.7663 80.7166 main 0 0 P________PO___ IO121969 16.7494 80.7249 -1 16.7494 80.7249 TC 30 16.8000 80.7000 2 12 284
1969308N12095 1969 109 NI BB NOT_NAMED 1969-11-07 18:00:00 TS 16.9151 80.1787 main 0 0 O________OP___ jtwc_io IO121969 16.9000 80.2000 -1 16.9000 80.2000 TC 25 16.9454 80.1360 2 10 287
1969308N12095 1969 109 NI BB NOT_NAMED 1969-11-07 21:00:00 TS 17.0639 79.7122 main 0 0 P________PP___ IO121969 17.0572 79.7349 -1 17.0572 79.7349 TC 25 17.0774 79.6669 2 9 288
1969308N12095 1969 109 NI BB NOT_NAMED 1969-11-08 00:00:00 TS 17.1986 79.2798 main 0 0 O________OP___ jtwc_io IO121969 17.2000 79.3000 -1 17.2000 79.3000 TC 25 17.1958 79.2393 2 9 286
1969308N12095 1969 109 NI BB NOT_NAMED 1969-11-08 03:00:00 TS 17.3099 78.8150 main 0 0 P________PO___ IO121969 17.3148 78.8224 -1 17.3148 78.8224 TC 25 17.3000 78.8000 1 10 281
1969308N12095 1969 109 NI BB NOT_NAMED 1969-11-08 06:00:00 TS 17.3803 78.2807 main 0 0 O________OP___ jtwc_io IO121969 17.4000 78.3000 -1 17.4000 78.3000 TC 25 17.3410 78.2421 1 11 276
1969308N12095 1969 109 NI AS NOT_NAMED 1969-11-08 09:00:00 TS 17.4202 77.6894 main 0 0 P________PP___ IO121969 17.4426 77.6998 -1 17.4426 77.6998 TC 25 17.3755 77.6685 1 11 275
1969308N12095 1969 109 NI AS NOT_NAMED 1969-11-08 12:00:00 TS 17.4824 77.1036 main 0 0 O________OP___ jtwc_io IO121969 17.5000 77.1000 -1 17.5000 77.1000 TC 25 17.4473 77.1107 1 11 280
1969308N12095 1969 109 NI AS NOT_NAMED 1969-11-08 15:00:00 TS 17.5983 76.5749 main 0 0 P________PO___ IO121969 17.5974 76.5623 -1 17.5974 76.5623 TC 25 17.6000 76.6000 1 10 290
1969308N12095 1969 109 NI AS NOT_NAMED 1969-11-08 18:00:00 TS 17.8261 76.1234 main 0 0 O________OP___ jtwc_io IO121969 17.8000 76.1000 -1 17.8000 76.1000 TC 25 17.8654 76.1585 1 10 307
1969308N12095 1969 109 NI AS NOT_NAMED 1969-11-08 21:00:00 TS 18.1849 75.7465 main 0 0 P________PP___ IO121969 18.1551 75.7254 -1 18.1551 75.7254 TC 25 18.2248 75.7747 1 10 320
1969308N12095 1969 109 NI AS NOT_NAMED 1969-11-09 00:00:00 TS 18.6234 75.4142 main 0 0 O________OP___ jtwc_io IO121969 18.6000 75.4000 -1 18.6000 75.4000 TC 25 18.6468 75.4284 1 11 326
1969308N12095 1969 109 NI AS NOT_NAMED 1969-11-09 03:00:00 NR 19.1000 75.1000 main 0 __________O___ IO121969 -1 TC 19.1000 75.1000 1 11 328

IBTrACS Databaseについて

本データベースは、米国NOAAが公開する1842年以降の世界の熱帯低気圧のベストトラックデータアーカイブInternational Best Track Archive for Climate Stewardship (IBTrACS)を、ウェブで閲覧しやすい形式に変換したものです。

最終更新日:2021-12-01